Main page
Satellite images 15-day forecastsClimateMarine weather Cyclones Lightning AirportsFAQ Newsletter About
Weather : Europe Africa North America South America Asia Australia-Oceania Others
Languages Contact

London, England

City airport

latitude: 51-30N, longitude: 000-03E, elevation: 5 m


METAR: EGLC 261020Z 07003KT 1200 R09/P1500 R27/P1500 -DZ BR SCT001 BKN003 09/08 Q1012
TAF: EGLC 260800Z 2609/2618 06003KT 2000 BR BKN004 PROB40 TEMPO 2609/2618 1200 RADZ BKN001

Time: 10:58 (10:58 UTC)

Current weather observation

The report was made 38 minutes ago, at 10:20 UTC
Wind 3 kt from the East/Northeast
Temperature 9°C
Humidity 93%
Pressure 1012 hPa
Visibility: 1200 m
Scattered clouds at a height of 100 ft
Broken clouds at a height of 300 ft
light drizzle and mist

Change units

Forecast

The report was made 2 hours and 58 minutes ago, at 08:00 UTC
Forecast valid from 26 at 09 UTC to 26 at 18 UTC
Wind 3 kt from the East/Northeast
Visibility: 2000 m
Broken clouds at a height of 400 ft
mist
Probability 40% :
Temporary
from 26 at 09 UTC to 26 at 18 UTC
Visibility: 1200 m
Broken clouds at a height of 100 ft
rain drizzle
The information on this site is subject to a disclaimer
Weather : Europe Africa North America South America Asia Australia-Oceania Others
Satellite images 15-day forecastsClimateMarine weather Cyclones Lightning AirportsFAQ Languages Contact Newsletter About